Time;durP1;ratioP1;P1;durP2;ratioP2;P2;SDS_P1;SDS_P2;PMS_P1;PMS_P2;Temp;Humidity;BMP_temperature;BMP_pressure;BME280_temperature;BME280_humidity;BME280_pressure;Samples;Min_cycle;Max_cycle;Signal;HPM_P1;HPM_P2
2023/01/20 00:01:28;;;;;;;7.28;2.35;;;-0.60;99.90;;;;;;5018498;28;20032;-52
2023/01/20 00:03:55;;;;;;;5.20;3.05;;;-0.70;99.90;;;;;;5018317;28;20125;-52
2023/01/20 00:06:22;;;;;;;4.68;2.45;;;-0.60;99.90;;;;;;5020220;28;20033;-50
2023/01/20 00:08:51;;;;;;;7.03;2.35;;;-0.60;99.90;;;;;;5018091;28;20034;-54
2023/01/20 00:11:17;;;;;;;7.70;2.50;;;-0.70;99.90;;;;;;5019306;28;20570;-52
2023/01/20 00:13:42;;;;;;;4.70;3.15;;;-0.70;99.90;;;;;;5015471;28;20107;-51
2023/01/20 00:16:09;;;;;;;6.68;2.13;;;-0.70;99.90;;;;;;5018698;28;20037;-55
2023/01/20 00:18:36;;;;;;;3.53;2.40;;;-0.70;99.90;;;;;;5019997;28;20030;-50
2023/01/20 00:21:03;;;;;;;5.07;2.65;;;-0.70;99.90;;;;;;5018597;28;20057;-55
2023/01/20 00:23:29;;;;;;;8.13;2.58;;;-0.70;99.90;;;;;;5018880;28;20033;-56
2023/01/20 00:25:55;;;;;;;8.40;3.13;;;-0.80;99.90;;;;;;5020749;28;20025;-55
2023/01/20 00:28:20;;;;;;;4.28;2.60;;;-0.70;99.90;;;;;;5019083;28;20051;-52
2023/01/20 00:30:46;;;;;;;5.22;2.45;;;-0.70;99.90;;;;;;5019608;28;20503;-55
2023/01/20 00:33:12;;;;;;;8.00;2.67;;;-0.70;99.90;;;;;;5019912;28;20025;-55
2023/01/20 00:35:37;;;;;;;3.85;2.75;;;-0.70;99.90;;;;;;5019016;28;20117;-56
2023/01/20 00:38:03;;;;;;;6.90;2.90;;;-0.70;99.90;;;;;;5018974;28;20079;-54
2023/01/20 00:40:28;;;;;;;4.07;2.97;;;-0.70;99.90;;;;;;5020633;28;20659;-53
2023/01/20 00:42:54;;;;;;;4.53;2.33;;;-0.70;99.90;;;;;;5019351;28;20435;-53
2023/01/20 00:45:20;;;;;;;4.63;2.75;;;-0.80;99.90;;;;;;5019407;28;20116;-51
2023/01/20 00:47:45;;;;;;;7.80;2.58;;;-0.80;99.90;;;;;;5019849;28;20044;-55
2023/01/20 00:50:11;;;;;;;6.03;2.78;;;-0.80;99.90;;;;;;5019211;28;20389;-53
2023/01/20 00:52:37;;;;;;;7.32;2.67;;;-0.80;99.90;;;;;;5018991;28;20029;-50
2023/01/20 00:55:02;;;;;;;4.30;2.78;;;-0.80;99.90;;;;;;5017361;28;20082;-54
2023/01/20 00:57:28;;;;;;;3.58;2.28;;;-0.80;99.90;;;;;;5019540;28;20020;-53
2023/01/20 00:59:54;;;;;;;4.22;2.45;;;-0.80;99.90;;;;;;5017847;28;20480;-51
2023/01/20 01:02:19;;;;;;;5.07;2.78;;;-0.80;99.90;;;;;;5019243;28;20061;-54
2023/01/20 01:04:49;;;;;;;8.63;3.00;;;-0.80;99.90;;;;;;5016066;28;20496;-52
2023/01/20 01:07:15;;;;;;;3.40;2.75;;;-0.80;99.90;;;;;;5018507;28;20036;-53
2023/01/20 01:09:41;;;;;;;8.40;2.90;;;-0.80;99.90;;;;;;5019271;28;20025;-52
2023/01/20 01:12:06;;;;;;;4.05;2.78;;;-0.90;99.90;;;;;;5018519;28;20091;-53
2023/01/20 01:14:32;;;;;;;5.22;3.15;;;-0.90;99.90;;;;;;5019108;28;20104;-52
2023/01/20 01:16:58;;;;;;;7.57;2.95;;;-0.90;99.90;;;;;;5019671;28;20680;-54
2023/01/20 01:19:24;;;;;;;6.55;2.90;;;-0.90;99.90;;;;;;5018143;28;20108;-54
2023/01/20 01:21:49;;;;;;;8.45;3.08;;;-0.90;99.90;;;;;;5018422;28;20033;-51
2023/01/20 01:24:15;;;;;;;5.95;3.20;;;-0.90;99.90;;;;;;5019128;28;20033;-55
2023/01/20 01:26:40;;;;;;;4.85;2.78;;;-0.90;99.90;;;;;;5017037;28;20029;-56
2023/01/20 01:29:06;;;;;;;4.28;2.58;;;-1.00;99.90;;;;;;5015358;28;20391;-55
2023/01/20 01:31:32;;;;;;;9.05;3.47;;;-1.00;99.90;;;;;;5019949;28;20026;-54
2023/01/20 01:33:58;;;;;;;6.28;3.13;;;-1.00;99.90;;;;;;5018850;28;20029;-52
2023/01/20 01:36:23;;;;;;;5.00;3.15;;;-1.00;99.90;;;;;;5018612;28;20041;-52
2023/01/20 01:38:49;;;;;;;5.65;3.55;;;-1.00;99.90;;;;;;5018703;28;20044;-54
2023/01/20 01:41:16;;;;;;;5.22;3.60;;;-1.00;99.90;;;;;;5017724;28;20037;-53
2023/01/20 01:44:07;;;;;;;4.25;2.88;;;-1.00;99.90;;;;;;5018196;28;20046;-54
2023/01/20 01:46:33;;;;;;;6.53;3.22;;;-1.00;99.90;;;;;;5016966;28;20033;-54
2023/01/20 01:49:02;;;;;;;7.05;3.50;;;-1.00;99.90;;;;;;5019028;28;20038;-56
2023/01/20 01:51:34;;;;;;;8.90;4.05;;;-1.00;99.90;;;;;;5019806;28;20079;-55
2023/01/20 01:54:21;;;;;;;4.93;3.40;;;-1.10;99.90;;;;;;5015375;28;20128;-55
2023/01/20 01:56:49;;;;;;;7.43;3.97;;;-1.10;99.90;;;;;;5016050;28;20033;-55
2023/01/20 01:59:16;;;;;;;6.97;4.45;;;-1.10;99.90;;;;;;5016750;28;20488;-53
2023/01/20 02:01:45;;;;;;;6.10;3.55;;;-1.10;99.90;;;;;;5016204;28;20040;-53
2023/01/20 02:04:17;;;;;;;5.47;4.13;;;-1.10;99.90;;;;;;5015304;28;20058;-53
2023/01/20 02:06:48;;;;;;;7.72;4.97;;;-1.10;99.90;;;;;;5014826;28;20037;-56
2023/01/20 02:09:14;;;;;;;8.68;4.90;;;-1.10;99.90;;;;;;5015417;28;20504;-53
2023/01/20 02:12:02;;;;;;;6.85;4.18;;;-1.10;99.90;;;;;;5018005;28;20098;-55
2023/01/20 02:14:33;;;;;;;6.93;5.10;;;-1.10;99.90;;;;;;5017530;28;20494;-55
2023/01/20 02:17:32;;;;;;;5.68;5.15;;;-1.10;99.90;;;;;;5016878;28;20040;-55
2023/01/20 02:20:22;;;;;;;13.15;6.13;;;-1.10;99.90;;;;;;5018181;28;20034;-56
2023/01/20 02:23:00;;;;;;;7.97;4.97;;;-1.10;99.90;;;;;;5017152;28;20034;-53
2023/01/20 02:25:35;;;;;;;7.97;5.47;;;-1.00;99.90;;;;;;5015112;28;20068;-52
2023/01/20 02:28:22;;;;;;;12.85;6.45;;;-1.10;99.90;;;;;;5016426;28;20034;-53
2023/01/20 02:30:48;;;;;;;8.45;5.93;;;-1.10;99.90;;;;;;5017716;28;20029;-54
2023/01/20 02:33:22;;;;;;;11.10;7.53;;;-1.10;99.90;;;;;;5017661;28;20519;-54
2023/01/20 02:36:06;;;;;;;9.43;6.53;;;-1.10;99.90;;;;;;5016913;28;20616;-55
2023/01/20 02:38:42;;;;;;;8.93;6.60;;;-1.10;99.90;;;;;;5016458;28;20041;-53
2023/01/20 02:41:16;;;;;;;15.80;8.05;;;-1.10;99.90;;;;;;5016659;28;20034;-54
2023/01/20 02:43:56;;;;;;;15.77;8.00;;;-1.10;99.90;;;;;;5015976;28;20589;-54
2023/01/20 02:46:32;;;;;;;11.68;7.78;;;-1.10;99.90;;;;;;5017645;28;20656;-55
2023/01/20 02:48:57;;;;;;;13.52;8.65;;;-1.10;99.90;;;;;;5015659;28;20053;-52
2023/01/20 02:51:28;;;;;;;15.25;9.07;;;-1.00;99.90;;;;;;5016997;28;20084;-51
2023/01/20 02:54:00;;;;;;;15.98;9.27;;;-1.00;99.90;;;;;;5017091;28;20503;-55
2023/01/20 02:56:28;;;;;;;16.50;9.60;;;-1.00;99.90;;;;;;5017876;28;20569;-54
2023/01/20 02:58:54;;;;;;;17.17;9.45;;;-1.00;99.90;;;;;;5016362;28;20113;-52
2023/01/20 03:01:29;;;;;;;16.98;11.40;;;-1.00;99.90;;;;;;5016873;28;20117;-54
2023/01/20 03:03:58;;;;;;;19.90;11.67;;;-1.00;99.90;;;;;;5017421;28;20036;-54
2023/01/20 03:06:27;;;;;;;19.48;11.98;;;-0.90;99.90;;;;;;5016763;28;20022;-55
2023/01/20 03:08:54;;;;;;;19.05;12.50;;;-0.90;99.90;;;;;;5014602;28;20121;-53
2023/01/20 03:11:20;;;;;;;21.45;12.40;;;-0.90;99.90;;;;;;5018130;28;20045;-55
2023/01/20 03:14:01;;;;;;;20.65;12.30;;;-0.90;99.90;;;;;;5016238;28;20086;-53
2023/01/20 03:16:27;;;;;;;18.25;12.40;;;-0.90;99.90;;;;;;5017655;28;20572;-56
2023/01/20 03:18:54;;;;;;;21.63;13.20;;;-0.90;99.90;;;;;;5016491;28;20111;-54
2023/01/20 03:21:20;;;;;;;22.20;13.48;;;-0.90;99.90;;;;;;5019764;28;20029;-56
2023/01/20 03:23:50;;;;;;;22.40;14.45;;;-0.80;99.90;;;;;;5021711;28;20420;-55
2023/01/20 03:26:17;;;;;;;22.85;14.13;;;-0.80;99.90;;;;;;5019863;28;20030;-55
2023/01/20 03:28:44;;;;;;;23.25;14.52;;;-0.80;99.90;;;;;;5021517;28;20032;-55
2023/01/20 03:31:15;;;;;;;24.13;15.38;;;-0.80;99.90;;;;;;5019262;28;20018;-54
2023/01/20 03:33:42;;;;;;;26.25;15.05;;;-0.80;99.90;;;;;;5019699;28;20033;-53
2023/01/20 03:36:09;;;;;;;26.05;16.92;;;-0.80;99.90;;;;;;5019938;28;20121;-55
2023/01/20 03:38:35;;;;;;;30.33;17.42;;;-0.80;99.90;;;;;;5018741;28;20029;-56
2023/01/20 03:41:34;;;;;;;27.75;17.40;;;-0.80;99.90;;;;;;5020180;28;20041;-55
2023/01/20 03:44:05;;;;;;;26.63;16.27;;;-0.80;99.90;;;;;;5019193;28;20554;-57
2023/01/20 03:46:46;;;;;;;26.23;17.85;;;-0.80;99.90;;;;;;5020978;28;20029;-56
2023/01/20 03:49:23;;;;;;;27.40;17.33;;;-0.80;99.90;;;;;;5018603;28;20392;-53
2023/01/20 03:52:03;;;;;;;27.38;17.95;;;-0.70;99.90;;;;;;5020457;28;20558;-54
2023/01/20 03:54:57;;;;;;;28.27;18.38;;;-0.70;99.90;;;;;;5019172;28;20030;-56
2023/01/20 03:57:30;;;;;;;32.55;18.90;;;-0.80;99.90;;;;;;5019513;28;20166;-52
2023/01/20 03:59:56;;;;;;;30.30;19.88;;;-0.80;99.90;;;;;;5020386;28;20025;-54
2023/01/20 04:02:24;;;;;;;29.08;18.58;;;-0.80;99.90;;;;;;5019744;28;20037;-52
2023/01/20 04:04:51;;;;;;;35.40;19.40;;;-0.80;99.90;;;;;;5019197;28;20034;-54
2023/01/20 04:07:21;;;;;;;31.75;21.13;;;-0.90;99.90;;;;;;5020783;28;20488;-53
2023/01/20 04:09:51;;;;;;;32.75;20.30;;;-0.80;99.90;;;;;;5021144;28;20036;-55
2023/01/20 04:12:17;;;;;;;36.15;20.27;;;-0.80;99.90;;;;;;5019579;28;20033;-52
2023/01/20 04:14:43;;;;;;;33.13;21.05;;;-0.80;99.90;;;;;;5018207;28;20030;-54
2023/01/20 04:17:09;;;;;;;36.20;22.00;;;-0.80;99.90;;;;;;5018372;22;20038;-78
2023/01/20 04:19:34;;;;;;;35.60;22.50;;;-0.80;99.90;;;;;;5011738;28;20452;-78
2023/01/20 04:22:06;;;;;;;36.22;22.10;;;-0.90;99.90;;;;;;5009612;28;20485;-78
2023/01/20 04:24:53;;;;;;;37.58;21.60;;;-0.90;99.90;;;;;;5011794;28;20026;-78
2023/01/20 04:27:18;;;;;;;37.70;22.63;;;-0.80;99.90;;;;;;5010436;28;20041;-78
2023/01/20 04:29:44;;;;;;;38.88;25.55;;;-0.80;99.90;;;;;;5011821;28;20034;-78
2023/01/20 04:32:11;;;;;;;36.97;23.58;;;-0.80;99.90;;;;;;5011037;28;20044;-78
2023/01/20 04:34:36;;;;;;;43.00;25.88;;;-0.80;99.90;;;;;;5012054;28;20018;-79
2023/01/20 04:37:02;;;;;;;39.20;26.00;;;-0.70;99.90;;;;;;5013540;28;20491;-78
2023/01/20 04:39:27;;;;;;;40.30;25.58;;;-0.70;99.90;;;;;;5013607;28;20034;-78
2023/01/20 04:41:53;;;;;;;36.05;23.35;;;-0.70;99.90;;;;;;5011867;28;20030;-79
2023/01/20 04:44:19;;;;;;;44.30;25.60;;;-0.70;99.90;;;;;;5013177;28;20053;-78
2023/01/20 04:46:46;;;;;;;44.00;25.50;;;-0.70;99.90;;;;;;5011172;28;20095;-78
2023/01/20 04:49:12;;;;;;;44.83;25.38;;;-0.70;99.90;;;;;;5013806;28;20520;-78
2023/01/20 04:51:37;;;;;;;42.80;26.17;;;-0.70;99.90;;;;;;5011724;28;20041;-78
2023/01/20 04:54:03;;;;;;;40.72;25.73;;;-0.60;99.90;;;;;;5011189;28;20485;-79
2023/01/20 04:56:29;;;;;;;45.42;25.20;;;-0.70;99.90;;;;;;5011263;28;20029;-79
2023/01/20 04:58:54;;;;;;;48.97;25.92;;;-0.60;99.90;;;;;;5011926;28;20026;-78
2023/01/20 05:01:20;;;;;;;38.85;24.05;;;-0.60;99.90;;;;;;5013023;28;20038;-78
2023/01/20 05:03:46;;;;;;;47.78;25.85;;;-0.60;99.90;;;;;;5010554;28;20030;-78
2023/01/20 05:06:12;;;;;;;45.78;27.23;;;-0.60;99.90;;;;;;5011891;28;20030;-78
2023/01/20 05:08:38;;;;;;;43.72;24.98;;;-0.60;99.90;;;;;;5013383;28;20037;-79
2023/01/20 05:11:04;;;;;;;41.60;24.33;;;-0.60;99.90;;;;;;5012510;28;20030;-78
2023/01/20 05:13:29;;;;;;;38.92;23.90;;;-0.60;99.90;;;;;;5013211;28;20102;-78
2023/01/20 05:15:55;;;;;;;43.63;26.25;;;-0.60;99.90;;;;;;5011783;28;20065;-79
2023/01/20 05:18:21;;;;;;;42.60;24.92;;;-0.50;99.90;;;;;;5011478;28;20070;-77
2023/01/20 05:20:48;;;;;;;43.63;24.85;;;-0.50;99.90;;;;;;5013456;28;20496;-78
2023/01/20 05:23:13;;;;;;;45.58;23.92;;;-0.50;99.90;;;;;;5013315;28;20108;-79
2023/01/20 05:25:39;;;;;;;42.10;24.75;;;-0.50;99.90;;;;;;5011285;28;20547;-78
2023/01/20 05:28:05;;;;;;;46.40;26.05;;;-0.50;99.90;;;;;;5011695;28;20066;-78
2023/01/20 05:30:30;;;;;;;52.42;25.60;;;-0.40;99.90;;;;;;5011260;28;20034;-79
2023/01/20 05:32:56;;;;;;;41.13;26.15;;;-0.50;99.90;;;;;;5011858;28;20041;-79
2023/01/20 05:35:22;;;;;;;45.10;24.90;;;-0.40;99.90;;;;;;5011485;28;20550;-78
2023/01/20 05:37:47;;;;;;;44.15;25.08;;;-0.40;99.90;;;;;;5013186;28;20091;-78
2023/01/20 05:40:13;;;;;;;43.97;24.60;;;-0.40;99.90;;;;;;5013825;28;20033;-79
2023/01/20 05:42:39;;;;;;;37.95;22.92;;;-0.50;99.90;;;;;;5013390;28;20117;-79
2023/01/20 05:45:05;;;;;;;43.10;25.25;;;-0.50;99.90;;;;;;5011240;28;20034;-79
2023/01/20 05:47:31;;;;;;;45.10;25.85;;;-0.50;99.90;;;;;;5012963;28;20497;-79
2023/01/20 05:49:56;;;;;;;47.17;25.75;;;-0.50;99.90;;;;;;5010613;28;20029;-78
2023/01/20 05:52:22;;;;;;;45.45;26.13;;;-0.50;99.90;;;;;;5011825;28;20026;-79
2023/01/20 05:54:47;;;;;;;47.67;25.13;;;-0.40;99.90;;;;;;5012762;28;20030;-79
2023/01/20 05:57:17;;;;;;;40.45;23.33;;;-0.50;99.90;;;;;;5011744;28;20038;-79
2023/01/20 05:59:46;;;;;;;42.88;26.48;;;-0.40;99.90;;;;;;5011390;28;20026;-79
2023/01/20 06:02:12;;;;;;;46.20;25.92;;;-0.40;99.90;;;;;;5007500;28;20022;-80
2023/01/20 06:04:37;;;;;;;41.60;25.77;;;-0.40;99.90;;;;;;5011975;28;20080;-79
2023/01/20 06:07:03;;;;;;;45.80;25.65;;;-0.40;99.90;;;;;;5017460;28;20022;-79
2023/01/20 06:09:28;;;;;;;42.17;23.33;;;-0.40;99.90;;;;;;5013548;28;20034;-79
2023/01/20 06:11:54;;;;;;;43.35;24.30;;;-0.40;99.90;;;;;;5011521;28;20026;-79
2023/01/20 06:14:20;;;;;;;42.55;23.30;;;-0.40;99.90;;;;;;5012312;28;20057;-79
2023/01/20 06:16:45;;;;;;;49.08;27.77;;;-0.40;99.90;;;;;;5010623;28;20036;-79
2023/01/20 06:19:11;;;;;;;40.97;24.55;;;-0.40;99.90;;;;;;5011394;28;20077;-79
2023/01/20 06:21:36;;;;;;;48.78;28.38;;;-0.40;99.90;;;;;;5013923;28;20041;-78
2023/01/20 06:24:02;;;;;;;46.30;26.30;;;-0.40;99.90;;;;;;5020813;28;20022;-78
2023/01/20 06:26:27;;;;;;;38.75;23.75;;;-0.40;99.90;;;;;;5012345;28;20034;-79
2023/01/20 06:28:58;;;;;;;43.60;24.15;;;-0.30;99.90;;;;;;5012040;28;20037;-78
2023/01/20 06:31:23;;;;;;;43.67;25.05;;;-0.40;99.90;;;;;;5009121;28;20080;-78
2023/01/20 06:33:49;;;;;;;45.92;25.70;;;-0.30;99.90;;;;;;5010955;28;20022;-78
2023/01/20 06:36:16;;;;;;;45.40;25.02;;;-0.30;99.90;;;;;;5009592;28;20026;-79
2023/01/20 06:38:47;;;;;;;41.63;24.38;;;-0.30;99.90;;;;;;5011529;28;20072;-78
2023/01/20 06:41:13;;;;;;;40.83;22.80;;;-0.30;99.90;;;;;;5010006;28;20067;-79
2023/01/20 06:43:41;;;;;;;47.25;24.70;;;-0.30;99.90;;;;;;5010106;28;20644;-78
2023/01/20 06:46:10;;;;;;;42.38;24.55;;;-0.30;99.90;;;;;;5009381;28;20022;-79
2023/01/20 06:48:36;;;;;;;41.35;22.88;;;-0.30;99.90;;;;;;5008729;28;20501;-79
2023/01/20 06:51:08;;;;;;;44.47;22.50;;;-0.30;99.90;;;;;;5013464;28;20465;-78
2023/01/20 06:53:34;;;;;;;41.00;22.00;;;-0.30;99.90;;;;;;5010636;28;20050;-79
2023/01/20 06:56:00;;;;;;;42.53;22.95;;;-0.30;99.90;;;;;;5009356;28;20638;-79
2023/01/20 06:58:28;;;;;;;37.50;21.75;;;-0.30;99.90;;;;;;5011086;28;20034;-78
2023/01/20 07:00:55;;;;;;;38.70;22.23;;;-0.30;99.90;;;;;;5009847;28;20583;-79
2023/01/20 07:03:21;;;;;;;41.67;23.60;;;-0.30;99.90;;;;;;5009520;28;20042;-78
2023/01/20 07:06:00;;;;;;;40.05;22.83;;;-0.30;99.90;;;;;;5011653;28;20037;-78
2023/01/20 07:08:26;;;;;;;38.58;21.80;;;-0.20;99.90;;;;;;5011485;28;20026;-79
2023/01/20 07:10:51;;;;;;;39.90;22.05;;;-0.20;99.90;;;;;;5010671;28;20130;-79
2023/01/20 07:13:17;;;;;;;40.92;22.90;;;-0.20;99.90;;;;;;5010506;28;20026;-79
2023/01/20 07:15:42;;;;;;;37.03;20.85;;;-0.20;99.90;;;;;;5010113;28;20049;-78
2023/01/20 07:18:08;;;;;;;38.80;20.20;;;-0.30;99.90;;;;;;5010327;28;20038;-79
2023/01/20 07:20:34;;;;;;;38.05;20.90;;;-0.30;99.90;;;;;;5010082;28;20029;-79
2023/01/20 07:23:01;;;;;;;39.22;20.80;;;-0.20;99.90;;;;;;5008381;28;20037;-78
2023/01/20 07:25:26;;;;;;;39.90;21.73;;;-0.20;99.90;;;;;;5010817;28;20030;-78
2023/01/20 07:27:52;;;;;;;38.40;19.60;;;-0.20;99.90;;;;;;5011098;28;20029;-79
2023/01/20 07:30:18;;;;;;;34.22;19.58;;;-0.20;99.90;;;;;;5011821;28;20174;-79
2023/01/20 07:32:44;;;;;;;38.72;20.83;;;-0.20;99.90;;;;;;5009929;28;20025;-79
2023/01/20 07:35:09;;;;;;;35.30;21.10;;;-0.20;99.90;;;;;;5011572;28;20026;-79
2023/01/20 07:37:35;;;;;;;37.13;19.58;;;-0.30;99.90;;;;;;5010614;28;20038;-79
2023/01/20 07:40:01;;;;;;;33.78;19.63;;;-0.20;99.90;;;;;;5009215;28;20064;-79
2023/01/20 07:42:26;;;;;;;34.13;18.83;;;-0.20;99.90;;;;;;5010098;28;20026;-79
2023/01/20 07:44:52;;;;;;;36.80;20.13;;;-0.20;99.90;;;;;;5010104;28;20507;-79
2023/01/20 07:47:17;;;;;;;37.97;21.90;;;-0.20;99.90;;;;;;5014765;28;20070;-78
2023/01/20 07:49:43;;;;;;;34.80;19.27;;;-0.20;99.90;;;;;;5028991;28;20030;-79
2023/01/20 07:52:08;;;;;;;42.33;20.83;;;-0.20;99.90;;;;;;5024237;28;20026;-79
2023/01/20 07:54:34;;;;;;;28.80;18.17;;;-0.10;99.90;;;;;;5013123;28;20045;-79
2023/01/20 07:56:59;;;;;;;34.88;19.40;;;-0.10;99.90;;;;;;5011965;28;20033;-79
2023/01/20 07:59:25;;;;;;;34.03;18.50;;;-0.10;99.90;;;;;;5011067;28;20488;-79
2023/01/20 08:01:51;;;;;;;32.78;18.73;;;-0.10;99.90;;;;;;5010355;28;20030;-78
2023/01/20 08:04:17;;;;;;;30.77;17.35;;;-0.10;99.90;;;;;;5008362;28;20018;-79
2023/01/20 08:06:42;;;;;;;37.67;19.23;;;-0.10;99.90;;;;;;5009064;28;20010;-78
2023/01/20 08:09:11;;;;;;;33.65;18.02;;;-0.10;99.90;;;;;;5013286;28;20022;-78
2023/01/20 08:11:37;;;;;;;29.77;17.33;;;-0.10;99.90;;;;;;5013971;28;20022;-79
2023/01/20 08:14:03;;;;;;;33.30;18.95;;;-0.10;99.90;;;;;;5013054;28;20026;-79
2023/01/20 08:16:28;;;;;;;27.33;16.52;;;0.00;99.90;;;;;;5013850;28;20382;-79
2023/01/20 08:18:54;;;;;;;30.45;18.13;;;0.00;99.90;;;;;;5013588;28;20612;-78
2023/01/20 08:21:25;;;;;;;34.17;17.17;;;0.00;99.90;;;;;;5015037;28;20077;-79
2023/01/20 08:23:51;;;;;;;27.50;16.83;;;0.00;99.90;;;;;;5015239;28;20061;-78
2023/01/20 08:26:18;;;;;;;30.80;16.75;;;0.10;99.90;;;;;;5012302;28;20053;-79
2023/01/20 08:28:43;;;;;;;27.00;16.17;;;0.10;99.90;;;;;;5013109;28;20618;-79
2023/01/20 08:31:11;;;;;;;35.22;17.52;;;0.10;99.90;;;;;;5029751;28;20025;-79
2023/01/20 08:33:38;;;;;;;36.92;19.88;;;0.10;99.90;;;;;;5013531;28;20505;-79
2023/01/20 08:36:14;;;;;;;28.23;17.35;;;0.00;99.90;;;;;;5008480;28;20168;-79
2023/01/20 08:38:41;;;;;;;26.63;15.35;;;0.00;99.90;;;;;;5013573;28;20034;-79
2023/01/20 08:41:13;;;;;;;27.02;15.45;;;0.10;99.90;;;;;;5013455;28;20022;-79
2023/01/20 08:43:39;;;;;;;25.50;16.23;;;0.10;99.90;;;;;;5015796;28;20097;-79
2023/01/20 08:46:08;;;;;;;27.67;14.60;;;0.10;99.90;;;;;;5013178;28;20034;-78
2023/01/20 08:48:34;;;;;;;32.40;16.33;;;0.10;99.90;;;;;;5015486;28;20037;-79
2023/01/20 08:51:23;;;;;;;27.98;14.90;;;0.10;99.90;;;;;;5014427;28;20477;-78
2023/01/20 08:53:48;;;;;;;28.15;15.30;;;0.20;99.90;;;;;;5012272;28;20030;-78
2023/01/20 08:56:15;;;;;;;26.45;15.93;;;0.20;99.90;;;;;;5015145;28;20322;-79
2023/01/20 08:58:41;;;;;;;28.48;14.77;;;0.20;99.90;;;;;;5013802;28;20110;-78
2023/01/20 09:01:27;;;;;;;27.52;15.68;;;0.30;99.90;;;;;;5012781;28;20065;-78
2023/01/20 09:06:21;;;;;;;27.95;14.27;;;0.30;99.90;;;;;;5006734;28;20401;-66
2023/01/20 09:08:50;;;;;;;27.30;14.63;;;0.30;99.90;;;;;;4998350;28;20030;-63
2023/01/20 09:11:19;;;;;;;26.42;14.23;;;0.30;99.90;;;;;;4999536;28;20030;-63
2023/01/20 09:13:45;;;;;;;24.98;15.65;;;0.30;99.90;;;;;;5000235;28;20048;-64
2023/01/20 09:16:13;;;;;;;23.90;14.00;;;0.40;99.90;;;;;;5000494;28;20022;-64
2023/01/20 09:18:38;;;;;;;24.63;15.32;;;0.40;99.90;;;;;;4999720;28;20104;-64
2023/01/20 09:21:07;;;;;;;29.63;16.30;;;0.40;99.90;;;;;;5000238;28;20021;-64
2023/01/20 09:23:35;;;;;;;21.27;13.90;;;0.50;99.90;;;;;;5000482;28;20075;-65
2023/01/20 09:26:03;;;;;;;28.38;14.85;;;0.50;99.90;;;;;;4999272;28;20044;-65
2023/01/20 09:28:29;;;;;;;22.73;14.60;;;0.50;99.90;;;;;;5000346;28;20433;-63
2023/01/20 09:30:59;;;;;;;25.13;14.38;;;0.50;99.90;;;;;;5000427;28;20463;-65
2023/01/20 09:33:25;;;;;;;23.95;15.00;;;0.60;99.90;;;;;;4999041;28;20033;-63
2023/01/20 09:35:57;;;;;;;23.40;14.43;;;0.60;99.90;;;;;;4998660;28;20025;-64
2023/01/20 09:44:40;;;;;;;22.63;13.55;;;0.60;99.90;;;;;;4999753;28;20041;-64
2023/01/20 09:47:29;;;;;;;25.48;13.13;;;0.60;99.90;;;;;;5000589;28;20038;-64
2023/01/20 09:53:35;;;;;;;23.52;12.65;;;0.60;99.90;;;;;;5000065;28;20102;-64
2023/01/20 09:56:09;;;;;;;26.67;14.80;;;0.60;99.90;;;;;;4998969;28;20578;-65
2023/01/20 09:58:59;;;;;;;22.88;14.88;;;0.60;99.90;;;;;;4998125;28;20536;-63
2023/01/20 10:01:29;;;;;;;26.38;13.75;;;0.70;99.90;;;;;;5000227;28;20034;-63
2023/01/20 10:04:07;;;;;;;22.40;14.00;;;0.60;99.90;;;;;;4999387;28;20435;-63
2023/01/20 10:06:41;;;;;;;21.45;13.35;;;0.60;99.90;;;;;;4999436;28;20504;-63
2023/01/20 10:09:41;;;;;;;25.38;14.68;;;0.60;99.90;;;;;;4999175;28;20019;-62
2023/01/20 10:12:24;;;;;;;20.92;12.88;;;0.60;99.90;;;;;;4997892;28;20507;-64
2023/01/20 10:14:55;;;;;;;22.92;13.88;;;0.60;99.90;;;;;;4997939;28;20413;-63
2023/01/20 10:17:32;;;;;;;24.48;13.77;;;0.60;99.90;;;;;;5000194;28;20621;-63
2023/01/20 10:20:10;;;;;;;22.55;14.00;;;0.60;99.90;;;;;;5000901;28;20041;-64
2023/01/20 10:22:44;;;;;;;23.27;12.98;;;0.60;99.90;;;;;;4999048;28;20109;-63
2023/01/20 10:25:26;;;;;;;22.88;13.00;;;0.60;99.90;;;;;;5000799;28;20054;-63
2023/01/20 10:27:59;;;;;;;22.48;13.32;;;0.60;99.90;;;;;;4998741;28;20030;-63
2023/01/20 10:30:30;;;;;;;21.70;13.65;;;0.60;99.90;;;;;;4999516;28;20026;-63
2023/01/20 10:33:08;;;;;;;25.65;14.95;;;0.70;99.90;;;;;;5000347;28;20261;-63
2023/01/20 10:35:56;;;;;;;26.05;12.70;;;0.70;99.90;;;;;;4998196;28;20526;-62
2023/01/20 10:38:34;;;;;;;26.15;13.98;;;0.80;99.90;;;;;;4997449;28;20511;-62
2023/01/20 10:41:21;;;;;;;23.77;13.55;;;0.80;99.90;;;;;;4998536;28;20026;-59
2023/01/20 10:43:46;;;;;;;28.67;14.93;;;0.90;99.90;;;;;;4999680;28;20066;-62
2023/01/20 10:46:48;;;;;;;29.77;16.67;;;1.00;99.90;;;;;;4997166;28;20108;-61
2023/01/20 10:49:40;;;;;;;27.42;14.02;;;1.10;99.90;;;;;;5013670;28;20041;-61
2023/01/20 10:52:28;;;;;;;42.22;24.02;;;1.20;99.90;;;;;;4997086;28;20030;-63
2023/01/20 10:55:13;;;;;;;28.50;15.90;;;1.30;99.90;;;;;;4997177;28;20489;-64
2023/01/20 10:57:39;;;;;;;24.25;13.10;;;1.30;99.90;;;;;;4999370;28;20061;-59
2023/01/20 11:00:16;;;;;;;22.48;13.88;;;1.40;99.90;;;;;;4998082;28;20042;-59
2023/01/20 11:02:42;;;;;;;22.70;16.02;;;1.40;99.90;;;;;;4998729;28;20091;-62
2023/01/20 11:05:18;;;;;;;22.70;12.70;;;1.50;99.90;;;;;;4998206;28;20136;-62
2023/01/20 11:07:46;;;;;;;23.80;14.07;;;1.40;99.90;;;;;;4999716;28;20081;-61
2023/01/20 11:10:16;;;;;;;25.58;16.92;;;1.50;99.90;;;;;;4998220;28;20070;-63
2023/01/20 11:12:44;;;;;;;21.10;13.57;;;1.50;99.90;;;;;;4998450;28;20033;-60
2023/01/20 11:15:32;;;;;;;21.35;15.80;;;1.50;99.90;;;;;;4996407;28;20029;-61
2023/01/20 11:18:13;;;;;;;21.27;13.68;;;1.50;99.90;;;;;;4998142;28;20027;-61
2023/01/20 11:20:47;;;;;;;21.60;13.02;;;1.50;99.90;;;;;;4996981;28;20022;-61
2023/01/20 11:23:31;;;;;;;21.50;13.43;;;1.50;99.90;;;;;;4998592;28;20026;-62
2023/01/20 11:26:15;;;;;;;20.65;12.23;;;1.50;99.90;;;;;;4998530;28;20077;-62
2023/01/20 11:29:01;;;;;;;18.33;12.23;;;1.50;99.90;;;;;;4997860;28;20040;-62
2023/01/20 11:31:36;;;;;;;18.75;11.98;;;1.50;99.90;;;;;;4999076;28;20029;-62
2023/01/20 11:34:24;;;;;;;20.80;12.20;;;1.60;99.90;;;;;;4998356;28;20025;-62
2023/01/20 11:37:10;;;;;;;18.73;12.40;;;1.60;99.90;;;;;;4997029;28;20038;-62
2023/01/20 11:39:43;;;;;;;22.52;13.50;;;1.60;99.90;;;;;;4998094;28;20035;-61
2023/01/20 11:42:27;;;;;;;22.65;12.32;;;1.60;99.90;;;;;;5002518;28;20412;-59
2023/01/20 11:45:01;;;;;;;21.77;12.35;;;1.60;99.90;;;;;;5003010;28;20392;-58
2023/01/20 11:47:36;;;;;;;19.05;11.45;;;1.60;99.90;;;;;;5002085;28;20030;-60
2023/01/20 11:50:07;;;;;;;22.10;13.68;;;1.60;99.90;;;;;;5002115;28;20469;-58
2023/01/20 11:52:39;;;;;;;20.65;12.65;;;1.50;99.90;;;;;;5002229;28;20026;-60
2023/01/20 11:55:11;;;;;;;18.95;12.20;;;1.60;99.90;;;;;;5001716;28;20050;-61
2023/01/20 11:57:59;;;;;;;19.73;12.30;;;1.50;99.90;;;;;;5001005;28;20393;-61
2023/01/20 12:00:25;;;;;;;19.15;11.90;;;1.60;99.90;;;;;;5003825;28;20030;-56
2023/01/20 12:03:20;;;;;;;22.55;13.65;;;1.60;99.90;;;;;;5001796;28;20033;-58
2023/01/20 12:06:10;;;;;;;23.85;12.55;;;1.50;99.90;;;;;;5002347;28;20109;-59
2023/01/20 12:08:58;;;;;;;18.65;11.55;;;1.50;99.90;;;;;;5001530;28;20089;-61
2023/01/20 12:11:35;;;;;;;18.98;12.93;;;1.50;99.90;;;;;;5001071;28;20018;-59
2023/01/20 12:14:27;;;;;;;21.88;12.27;;;1.40;99.90;;;;;;5000275;28;20069;-59
2023/01/20 12:17:35;;;;;;;19.80;11.27;;;1.40;99.90;;;;;;5001268;28;20065;-60
2023/01/20 12:20:18;;;;;;;20.00;11.93;;;1.40;99.90;;;;;;4986735;28;20038;-57
2023/01/20 12:22:52;;;;;;;21.42;13.45;;;1.30;99.90;;;;;;5000602;28;20686;-60
2023/01/20 12:25:26;;;;;;;20.52;12.90;;;1.30;99.90;;;;;;5001445;28;20098;-60
2023/01/20 12:27:56;;;;;;;22.60;12.68;;;1.30;99.90;;;;;;5001554;28;20370;-56
2023/01/20 12:30:51;;;;;;;21.70;13.00;;;1.30;99.90;;;;;;4999813;28;20088;-58
2023/01/20 12:33:21;;;;;;;19.67;11.75;;;1.30;99.90;;;;;;4999048;28;20042;-61
2023/01/20 12:36:10;;;;;;;22.80;12.45;;;1.40;99.90;;;;;;5001246;28;20065;-61
2023/01/20 12:38:56;;;;;;;17.63;11.32;;;1.50;99.90;;;;;;5001292;28;20042;-58
2023/01/20 12:42:04;;;;;;;22.50;13.18;;;1.50;99.90;;;;;;5000561;28;20044;-59
2023/01/20 12:44:49;;;;;;;21.38;12.40;;;1.60;99.90;;;;;;5000977;28;20547;-61
2023/01/20 12:47:30;;;;;;;21.80;12.48;;;1.60;99.90;;;;;;5000655;28;20026;-58
2023/01/20 12:50:17;;;;;;;23.17;11.55;;;1.70;99.90;;;;;;5000724;28;20448;-60
2023/01/20 12:52:58;;;;;;;24.92;13.27;;;1.80;99.90;;;;;;4998388;28;20025;-55
2023/01/20 12:55:58;;;;;;;22.45;13.45;;;1.80;99.90;;;;;;5000353;28;20041;-56
2023/01/20 12:58:55;;;;;;;21.13;12.15;;;1.90;99.90;;;;;;5000791;28;20042;-60
2023/01/20 13:01:42;;;;;;;21.60;12.93;;;2.00;99.90;;;;;;5000457;28;20050;-54
2023/01/20 13:04:35;;;;;;;23.42;12.38;;;2.00;99.90;;;;;;4999793;28;20034;-59
2023/01/20 13:07:14;;;;;;;18.30;12.43;;;2.10;99.90;;;;;;4999918;28;20033;-57
2023/01/20 13:10:19;;;;;;;17.92;11.63;;;2.10;99.90;;;;;;5000494;28;20085;-58